Time;durP1;ratioP1;P1;durP2;ratioP2;P2;SDS_P1;SDS_P2;PMS_P1;PMS_P2;Temp;Humidity;BMP_temperature;BMP_pressure;BME280_temperature;BME280_humidity;BME280_pressure;Samples;Min_cycle;Max_cycle;Signal;HPM_P1;HPM_P2
2022/06/10 00:00:49;;;;;;;8.93;2.70;;;13.90;99.90;;;;;;5092103;28;20290;-76
2022/06/10 00:03:17;;;;;;;10.50;2.90;;;13.90;99.90;;;;;;5092703;28;20286;-76
2022/06/10 00:05:47;;;;;;;11.80;2.90;;;13.90;99.90;;;;;;5093143;28;20278;-76
2022/06/10 00:08:16;;;;;;;10.70;3.20;;;13.90;99.90;;;;;;5092495;28;20281;-76
2022/06/10 00:10:45;;;;;;;13.73;2.97;;;13.90;99.90;;;;;;5093617;28;20380;-76
2022/06/10 00:13:12;;;;;;;9.97;2.50;;;13.90;99.90;;;;;;5092808;28;20293;-76
2022/06/10 00:15:38;;;;;;;11.17;3.00;;;13.90;99.90;;;;;;5092940;28;20762;-76
2022/06/10 00:18:03;;;;;;;13.27;3.13;;;13.90;99.90;;;;;;5092747;28;20281;-76
2022/06/10 00:20:32;;;;;;;10.17;2.90;;;13.90;99.90;;;;;;5092810;28;20084;-76
2022/06/10 00:22:58;;;;;;;14.97;2.80;;;13.90;99.90;;;;;;5092687;28;20104;-76
2022/06/10 00:25:25;;;;;;;12.60;3.27;;;13.90;99.90;;;;;;5092660;28;20288;-76
2022/06/10 00:27:51;;;;;;;13.60;3.43;;;13.90;99.90;;;;;;5075271;28;20677;-76
2022/06/10 00:30:19;;;;;;;13.60;3.23;;;13.80;99.90;;;;;;5092463;28;20278;-76
2022/06/10 00:32:45;;;;;;;12.27;4.30;;;13.80;99.90;;;;;;5092887;28;20274;-76
2022/06/10 00:35:12;;;;;;;10.57;2.97;;;13.80;99.90;;;;;;5092412;28;20638;-76
2022/06/10 00:37:38;;;;;;;7.50;2.73;;;13.80;99.90;;;;;;5092262;28;20117;-76
2022/06/10 00:40:06;;;;;;;10.57;2.87;;;13.90;99.90;;;;;;5092765;28;20335;-76
2022/06/10 00:42:35;;;;;;;11.90;3.37;;;13.80;99.90;;;;;;5092810;28;20736;-76
2022/06/10 00:45:02;;;;;;;10.00;3.23;;;13.70;99.90;;;;;;5092705;28;20321;-76
2022/06/10 00:47:42;;;;;;;12.07;2.73;;;13.70;99.90;;;;;;5074444;28;20680;-76
2022/06/10 00:50:13;;;;;;;15.27;4.03;;;13.80;99.90;;;;;;5092248;28;20278;-76
2022/06/10 00:52:43;;;;;;;11.83;3.20;;;13.80;99.90;;;;;;5092622;28;20278;-76
2022/06/10 00:55:09;;;;;;;10.27;3.13;;;13.60;99.90;;;;;;5092506;28;20285;-76
2022/06/10 00:57:40;;;;;;;11.87;3.23;;;13.60;99.90;;;;;;5092513;28;20615;-76
2022/06/10 01:00:10;;;;;;;9.87;3.00;;;13.70;99.90;;;;;;5092559;28;20036;-76
2022/06/10 01:02:36;;;;;;;10.33;2.90;;;13.60;99.90;;;;;;5092389;28;20282;-76
2022/06/10 01:05:16;;;;;;;11.37;3.87;;;13.60;99.90;;;;;;5092734;28;20392;-76
2022/06/10 01:07:50;;;;;;;10.10;3.00;;;13.60;99.90;;;;;;5092659;28;20270;-76
2022/06/10 01:10:18;;;;;;;13.10;3.67;;;13.60;99.90;;;;;;5092283;28;20289;-76
2022/06/10 01:13:08;;;;;;;9.27;2.50;;;13.60;99.90;;;;;;5096034;28;20400;-76
2022/06/10 01:15:45;;;;;;;11.00;3.17;;;13.60;99.90;;;;;;5095980;28;20274;-76
2022/06/10 01:18:14;;;;;;;11.70;3.07;;;13.50;99.90;;;;;;5077757;28;20375;-76
2022/06/10 01:21:02;;;;;;;12.03;3.10;;;13.50;99.90;;;;;;5077946;28;20662;-76
2022/06/10 01:23:28;;;;;;;14.03;3.63;;;13.50;99.90;;;;;;5077826;28;20339;-76
2022/06/10 01:25:57;;;;;;;11.17;2.90;;;;;;;;;;5096104;28;20282;-76
2022/06/10 01:29:02;;;;;;;10.30;3.50;;;13.40;99.90;;;;;;5095701;28;20901;-76
2022/06/10 01:31:57;;;;;;;11.60;3.00;;;13.40;99.90;;;;;;5095610;28;20278;-76
2022/06/10 01:34:35;;;;;;;12.63;3.53;;;13.40;99.90;;;;;;5091702;28;20334;-76
2022/06/10 01:37:10;;;;;;;9.80;3.20;;;13.30;99.90;;;;;;5095801;28;20270;-76
2022/06/10 01:40:19;;;;;;;13.77;3.60;;;13.30;99.90;;;;;;5095320;28;20313;-76
2022/06/10 01:42:51;;;;;;;13.10;3.50;;;13.30;99.90;;;;;;5095729;28;20347;-76
2022/06/10 01:45:32;;;;;;;15.00;3.70;;;13.30;99.90;;;;;;5095509;28;20316;-76
2022/06/10 01:48:04;;;;;;;11.37;3.07;;;13.30;99.90;;;;;;5095604;28;20382;-75
2022/06/10 01:50:33;;;;;;;12.47;3.43;;;13.30;99.90;;;;;;5095197;28;20680;-76
2022/06/10 01:53:18;;;;;;;16.40;3.70;;;13.20;99.90;;;;;;5077867;28;20278;-76
2022/06/10 01:56:01;;;;;;;9.02;3.08;;;13.20;99.90;;;;;;5095523;28;20626;-76
2022/06/10 01:58:44;;;;;;;14.20;3.73;;;13.20;99.90;;;;;;5095108;28;20049;-76
2022/06/10 02:01:18;;;;;;;11.50;3.30;;;13.20;99.90;;;;;;5095374;28;20393;-76
2022/06/10 02:03:56;;;;;;;12.13;3.28;;;13.20;99.90;;;;;;5095570;28;20274;-76
2022/06/10 02:06:30;;;;;;;12.97;3.47;;;13.20;99.90;;;;;;5095022;28;20048;-76
2022/06/10 02:09:00;;;;;;;9.45;3.20;;;13.20;99.90;;;;;;5077251;28;20847;-76
2022/06/10 02:11:28;;;;;;;13.40;3.10;;;13.20;99.90;;;;;;5094669;28;20047;-76
2022/06/10 02:14:07;;;;;;;11.13;3.13;;;13.10;99.90;;;;;;5095078;28;20758;-76
2022/06/10 02:16:37;;;;;;;12.70;3.43;;;13.10;99.90;;;;;;5094857;28;20327;-76
2022/06/10 02:19:10;;;;;;;15.70;3.90;;;13.10;99.90;;;;;;5095019;28;20353;-76
2022/06/10 02:21:43;;;;;;;8.27;2.97;;;13.10;99.90;;;;;;5094486;28;20369;-76
2022/06/10 02:24:25;;;;;;;14.47;3.97;;;13.00;99.90;;;;;;5094196;28;20274;-76
2022/06/10 02:26:52;;;;;;;13.00;3.60;;;13.00;99.90;;;;;;5094917;28;20274;-76
2022/06/10 02:29:23;;;;;;;12.07;3.90;;;13.00;99.90;;;;;;5094840;28;20278;-76
2022/06/10 02:31:54;;;;;;;17.07;4.00;;;13.00;99.90;;;;;;5076916;28;20298;-76
2022/06/10 02:34:20;;;;;;;14.73;4.23;;;13.00;99.90;;;;;;5076307;28;20639;-76
2022/06/10 02:37:06;;;;;;;12.60;3.07;;;13.00;99.90;;;;;;5094777;28;20282;-75
2022/06/10 02:40:01;;;;;;;12.13;3.90;;;13.00;99.90;;;;;;5093841;28;20294;-76
2022/06/10 02:42:42;;;;;;;17.55;3.55;;;13.00;99.90;;;;;;5094173;28;20291;-76
2022/06/10 02:45:19;;;;;;;13.83;3.40;;;13.00;99.90;;;;;;5094842;28;20048;-76
2022/06/10 02:48:23;;;;;;;13.33;3.27;;;13.00;99.90;;;;;;5076389;28;20287;-76
2022/06/10 02:50:49;;;;;;;11.17;3.60;;;13.00;99.90;;;;;;5051904;28;20287;-75
2022/06/10 02:53:15;;;;;;;17.53;4.23;;;13.00;99.90;;;;;;5086472;28;20309;-75
2022/06/10 02:55:41;;;;;;;14.23;3.93;;;13.00;99.90;;;;;;5094077;28;20282;-76
2022/06/10 03:01:13;;;;;;;11.55;3.60;;;12.90;99.90;;;;;;5076120;28;20484;-76
2022/06/10 03:04:38;;;;;;;10.97;3.53;;;12.90;99.90;;;;;;5093938;28;20048;-76
2022/06/10 03:07:15;;;;;;;13.60;3.40;;;12.80;99.90;;;;;;5088520;28;20642;-76
2022/06/10 03:10:01;;;;;;;17.67;4.20;;;;;;;;;;5093698;28;20336;-76
2022/06/10 03:12:52;;;;;;;11.53;3.30;;;12.80;99.90;;;;;;5093883;28;20278;-76
2022/06/10 03:15:45;;;;;;;13.57;4.00;;;12.80;99.90;;;;;;5072434;28;20346;-76
2022/06/10 03:18:21;;;;;;;11.23;3.90;;;12.80;99.90;;;;;;5093906;28;20748;-76
2022/06/10 03:20:58;;;;;;;13.83;3.90;;;12.80;99.90;;;;;;5093485;28;20290;-76
2022/06/10 03:24:04;;;;;;;14.17;3.43;;;12.80;99.90;;;;;;5093732;28;20396;-76
2022/06/10 03:26:40;;;;;;;15.37;3.40;;;12.80;99.90;;;;;;5093262;28;20274;-76
2022/06/10 03:29:11;;;;;;;13.93;2.83;;;12.80;99.90;;;;;;5093853;28;20282;-76
2022/06/10 03:31:41;;;;;;;12.47;3.07;;;12.80;99.90;;;;;;5093249;28;20285;-76
2022/06/10 03:34:20;;;;;;;15.67;3.33;;;12.80;99.90;;;;;;5075830;28;20780;-76
2022/06/10 03:36:47;;;;;;;12.87;3.23;;;12.80;99.90;;;;;;5093187;28;20281;-75
2022/06/10 03:39:13;;;;;;;11.50;3.80;;;12.70;99.90;;;;;;5093519;28;20765;-76
2022/06/10 03:42:04;;;;;;;10.93;3.67;;;12.70;99.90;;;;;;5093267;28;20300;-76
2022/06/10 03:44:31;;;;;;;14.73;4.67;;;12.80;99.90;;;;;;5093166;28;20127;-76
2022/06/10 03:46:57;;;;;;;15.20;3.60;;;12.70;99.90;;;;;;5093392;28;20361;-76
2022/06/10 03:49:30;;;;;;;14.43;3.70;;;12.80;99.90;;;;;;5093203;28;20323;-76
2022/06/10 03:51:59;;;;;;;19.00;3.30;;;12.80;99.90;;;;;;5093449;28;20278;-76
2022/06/10 03:54:25;;;;;;;11.43;3.53;;;12.80;99.90;;;;;;5093316;28;20274;-76
2022/06/10 03:56:52;;;;;;;16.13;3.77;;;12.90;99.90;;;;;;5092846;28;20278;-76
2022/06/10 03:59:19;;;;;;;13.10;3.00;;;12.90;99.90;;;;;;5093000;28;20762;-76
2022/06/10 04:01:45;;;;;;;14.37;3.20;;;13.00;99.90;;;;;;5092306;28;20774;-76
2022/06/10 04:04:11;;;;;;;14.00;4.37;;;13.10;99.90;;;;;;5093187;28;20282;-75
2022/06/10 04:06:37;;;;;;;11.10;3.20;;;13.20;99.90;;;;;;5092810;28;20286;-76
2022/06/10 04:09:04;;;;;;;12.70;3.17;;;13.20;99.90;;;;;;5075050;28;20278;-76
2022/06/10 04:11:30;;;;;;;15.50;3.87;;;13.30;99.90;;;;;;5093013;28;20043;-76
2022/06/10 04:13:55;;;;;;;14.53;3.90;;;13.30;99.90;;;;;;5092650;28;20274;-76
2022/06/10 04:16:21;;;;;;;13.37;3.57;;;13.40;99.90;;;;;;5092849;28;20047;-75
2022/06/10 04:18:47;;;;;;;11.83;2.87;;;13.40;99.90;;;;;;5092804;28;20496;-76
2022/06/10 04:21:12;;;;;;;16.60;3.70;;;13.50;99.90;;;;;;5092951;28;20048;-76
2022/06/10 04:23:38;;;;;;;12.80;3.50;;;13.60;99.90;;;;;;5092611;28;20043;-76
2022/06/10 04:26:04;;;;;;;14.60;3.23;;;13.60;99.90;;;;;;5092986;28;20430;-76
2022/06/10 04:28:30;;;;;;;17.73;3.73;;;13.70;99.90;;;;;;5092812;28;20051;-76
2022/06/10 04:30:56;;;;;;;13.30;3.40;;;13.70;99.90;;;;;;5057969;28;20128;-76
2022/06/10 04:33:21;;;;;;;11.63;3.00;;;13.80;99.90;;;;;;5092782;28;20372;-76
2022/06/10 04:35:50;;;;;;;11.77;3.63;;;13.80;99.90;;;;;;5092375;28;20055;-76
2022/06/10 04:38:17;;;;;;;10.90;3.17;;;;;;;;;;5092631;28;20396;-76
2022/06/10 04:40:44;;;;;;;11.90;3.13;;;13.90;99.90;;;;;;5092402;28;20294;-76
2022/06/10 04:43:10;;;;;;;17.57;3.40;;;14.00;99.90;;;;;;5092639;28;20282;-76
2022/06/10 04:45:44;;;;;;;13.67;3.27;;;14.00;99.90;;;;;;5092832;28;20278;-76
2022/06/10 04:48:11;;;;;;;17.30;3.40;;;14.00;99.90;;;;;;5096959;28;20270;-76
2022/06/10 04:50:37;;;;;;;13.33;3.97;;;14.00;99.90;;;;;;5096478;28;20792;-76
2022/06/10 04:53:03;;;;;;;14.77;3.20;;;14.10;99.90;;;;;;5096821;28;20274;-76
2022/06/10 04:55:28;;;;;;;12.63;3.60;;;14.10;99.90;;;;;;5096935;28;20289;-77
2022/06/10 04:57:55;;;;;;;10.97;2.70;;;14.10;99.90;;;;;;5078407;28;20044;-77
2022/06/10 05:00:32;;;;;;;16.53;3.43;;;14.20;99.90;;;;;;5096202;28;20048;-77
2022/06/10 05:02:58;;;;;;;12.43;3.00;;;14.20;99.90;;;;;;5096192;28;20844;-77
2022/06/10 05:05:25;;;;;;;12.93;2.90;;;14.20;99.90;;;;;;5096364;28;20285;-77
2022/06/10 05:07:51;;;;;;;12.00;3.40;;;14.20;99.90;;;;;;5096043;28;20269;-77
2022/06/10 05:10:18;;;;;;;15.20;3.97;;;14.20;99.90;;;;;;5096119;28;20370;-77
2022/06/10 05:12:47;;;;;;;17.57;3.30;;;14.20;99.90;;;;;;5095840;28;20381;-77
2022/06/10 05:15:14;;;;;;;12.80;3.47;;;14.30;99.90;;;;;;5096276;28;20364;-77
2022/06/10 05:17:40;;;;;;;12.40;3.23;;;14.30;99.90;;;;;;5096387;28;20617;-77
2022/06/10 05:20:07;;;;;;;14.87;3.70;;;14.30;99.90;;;;;;5096591;28;20623;-77
2022/06/10 05:22:33;;;;;;;13.20;3.40;;;14.40;99.90;;;;;;5096123;28;20334;-77
2022/06/10 05:24:59;;;;;;;9.93;3.33;;;14.50;99.90;;;;;;5061338;28;20325;-77
2022/06/10 05:27:24;;;;;;;11.77;3.40;;;14.60;99.90;;;;;;5095876;28;20045;-77
2022/06/10 05:29:50;;;;;;;15.47;3.80;;;14.70;99.90;;;;;;5095807;28;20080;-77
2022/06/10 05:32:16;;;;;;;14.80;3.77;;;14.70;99.90;;;;;;5096062;28;20051;-77
2022/06/10 05:34:44;;;;;;;11.90;3.50;;;14.80;99.90;;;;;;5078108;28;20044;-77
2022/06/10 05:37:12;;;;;;;15.57;4.27;;;14.80;99.90;;;;;;5095972;28;20044;-77
2022/06/10 05:39:37;;;;;;;13.53;3.47;;;14.80;99.90;;;;;;5095722;28;20294;-77
2022/06/10 05:42:08;;;;;;;18.03;3.63;;;14.80;99.90;;;;;;5077138;28;20451;-77
2022/06/10 05:44:39;;;;;;;14.77;3.97;;;14.80;99.90;;;;;;5095812;28;20510;-77
2022/06/10 05:47:08;;;;;;;16.50;4.13;;;14.80;99.90;;;;;;5095578;28;20293;-77
2022/06/10 05:49:40;;;;;;;16.30;4.10;;;14.80;99.90;;;;;;5095596;28;20839;-77
2022/06/10 05:52:07;;;;;;;16.87;4.80;;;14.80;99.90;;;;;;5095279;28;20388;-77
2022/06/10 05:54:34;;;;;;;13.33;3.97;;;14.80;99.90;;;;;;5095473;28;20365;-77
2022/06/10 05:57:00;;;;;;;13.60;3.33;;;14.80;99.90;;;;;;5095256;28;20682;-77
2022/06/10 05:59:29;;;;;;;12.70;3.70;;;14.80;99.90;;;;;;5077569;28;20325;-77
2022/06/10 06:01:56;;;;;;;14.03;3.73;;;14.70;99.90;;;;;;5095023;28;20036;-77
2022/06/10 06:04:22;;;;;;;14.63;4.70;;;14.70;99.90;;;;;;5095424;28;20284;-77
2022/06/10 06:06:48;;;;;;;11.47;3.90;;;14.70;99.90;;;;;;5095038;28;20403;-78
2022/06/10 06:09:14;;;;;;;22.37;5.17;;;14.80;99.90;;;;;;5095077;28;20310;-77
2022/06/10 06:11:41;;;;;;;17.40;4.27;;;14.80;99.90;;;;;;5095293;28;20040;-77
2022/06/10 06:14:07;;;;;;;16.83;5.20;;;14.80;99.90;;;;;;5094975;28;20334;-77
2022/06/10 06:16:35;;;;;;;14.10;4.20;;;14.80;99.90;;;;;;5095163;28;20678;-77
2022/06/10 06:19:01;;;;;;;20.37;4.80;;;14.90;99.90;;;;;;5076967;28;20289;-77
2022/06/10 06:21:27;;;;;;;18.57;4.53;;;14.90;99.90;;;;;;5094807;28;20294;-77
2022/06/10 06:23:53;;;;;;;16.77;4.63;;;14.90;99.90;;;;;;5094933;28;20275;-77
2022/06/10 06:26:19;;;;;;;19.57;4.77;;;14.90;99.90;;;;;;5094919;28;20286;-77
2022/06/10 06:28:44;;;;;;;16.40;4.80;;;15.00;99.90;;;;;;5094940;28;20507;-77
2022/06/10 06:31:11;;;;;;;16.60;4.93;;;15.10;99.90;;;;;;5094500;28;20039;-77
2022/06/10 06:33:37;;;;;;;16.70;4.93;;;15.10;99.90;;;;;;5094625;28;20515;-77
2022/06/10 06:36:04;;;;;;;13.83;4.80;;;15.20;99.90;;;;;;5094424;28;20282;-78
2022/06/10 06:38:33;;;;;;;17.30;4.27;;;15.20;99.90;;;;;;5094540;28;20098;-77
2022/06/10 06:40:59;;;;;;;18.43;5.07;;;15.20;99.90;;;;;;5076602;28;20338;-77
2022/06/10 06:43:25;;;;;;;16.07;5.33;;;15.30;99.90;;;;;;5094941;28;20055;-77
2022/06/10 06:45:51;;;;;;;15.73;4.77;;;15.30;99.90;;;;;;5094602;28;20040;-78
2022/06/10 06:48:16;;;;;;;18.97;5.27;;;15.30;99.90;;;;;;5094239;28;20051;-77
2022/06/10 06:50:47;;;;;;;14.23;4.63;;;15.30;99.90;;;;;;5076240;28;20507;-77
2022/06/10 06:53:13;;;;;;;18.10;4.50;;;15.30;99.90;;;;;;5094274;28;20047;-77
2022/06/10 06:55:40;;;;;;;16.70;4.30;;;15.40;99.90;;;;;;5094411;28;20270;-77
2022/06/10 06:58:10;;;;;;;17.20;4.33;;;15.40;99.90;;;;;;5093978;28;20356;-77
2022/06/10 07:00:36;;;;;;;16.03;5.23;;;;;;;;;;5094185;28;20270;-77
2022/06/10 07:03:04;;;;;;;13.67;4.40;;;15.60;99.90;;;;;;5076011;28;20733;-77
2022/06/10 07:05:31;;;;;;;14.83;5.13;;;15.70;99.90;;;;;;5094283;28;20274;-77
2022/06/10 07:07:57;;;;;;;14.87;5.03;;;15.70;99.90;;;;;;5076147;28;20372;-77
2022/06/10 07:10:24;;;;;;;16.33;5.13;;;15.70;99.90;;;;;;5093720;28;20306;-78
2022/06/10 07:12:50;;;;;;;13.63;5.47;;;15.80;99.90;;;;;;5094061;28;20274;-77
2022/06/10 07:15:17;;;;;;;14.97;6.40;;;15.90;99.90;;;;;;5093624;28;20785;-77
2022/06/10 07:17:43;;;;;;;16.43;6.30;;;16.00;99.90;;;;;;5093866;28;20686;-77
2022/06/10 07:20:17;;;;;;;14.10;6.20;;;16.00;99.90;;;;;;5093589;28;20135;-77
2022/06/10 07:22:43;;;;;;;14.18;5.22;;;16.10;99.90;;;;;;5093972;28;20044;-77
2022/06/10 07:25:10;;;;;;;11.13;5.53;;;16.10;99.90;;;;;;5093636;28;20040;-77
2022/06/10 07:27:36;;;;;;;13.33;6.23;;;16.10;99.90;;;;;;5093804;28;20051;-77
2022/06/10 07:30:06;;;;;;;13.33;5.70;;;16.10;99.90;;;;;;5093326;28;20506;-78
2022/06/10 07:32:32;;;;;;;15.13;4.73;;;16.10;99.90;;;;;;5093576;28;20083;-78
2022/06/10 07:34:57;;;;;;;13.90;5.50;;;16.10;99.90;;;;;;5093654;28;20083;-78
2022/06/10 07:37:24;;;;;;;12.63;5.17;;;;;;;;;;5093689;28;20093;-72
2022/06/10 07:39:50;;;;;;;13.20;5.43;;;16.10;99.90;;;;;;5093391;28;20056;-79
2022/06/10 07:42:16;;;;;;;9.47;5.00;;;16.10;99.90;;;;;;5093071;28;20518;-79
2022/06/10 07:44:42;;;;;;;13.00;5.90;;;16.10;99.90;;;;;;5093432;28;20047;-79
2022/06/10 07:47:12;;;;;;;14.20;6.73;;;16.20;99.90;;;;;;5092953;28;20399;-79
2022/06/10 07:49:38;;;;;;;13.03;6.30;;;16.10;99.90;;;;;;5093525;28;20048;-79
2022/06/10 07:52:06;;;;;;;11.93;6.50;;;16.10;99.90;;;;;;5093280;28;20278;-79
2022/06/10 07:54:34;;;;;;;15.07;7.30;;;16.20;99.90;;;;;;5093579;28;20044;-79
2022/06/10 07:57:00;;;;;;;16.80;7.43;;;16.20;99.90;;;;;;5093143;28;20561;-79
2022/06/10 07:59:27;;;;;;;17.07;6.60;;;16.20;99.90;;;;;;5093185;28;20055;-80
2022/06/10 08:01:52;;;;;;;16.50;6.67;;;16.20;99.90;;;;;;5093284;28;20048;-80
2022/06/10 08:04:18;;;;;;;12.33;6.93;;;16.30;99.90;;;;;;5093008;28;20040;-79
2022/06/10 08:06:46;;;;;;;12.60;6.40;;;16.30;99.90;;;;;;5058804;28;20499;-80
2022/06/10 08:09:14;;;;;;;18.07;6.97;;;16.30;99.90;;;;;;5092808;28;20519;-79
2022/06/10 08:11:40;;;;;;;17.13;6.40;;;16.30;99.90;;;;;;5093055;28;20039;-79
2022/06/10 08:14:07;;;;;;;18.17;6.00;;;16.30;99.90;;;;;;5092695;28;20131;-79
2022/06/10 08:16:34;;;;;;;13.97;5.60;;;16.30;99.90;;;;;;5093123;28;20090;-77
2022/06/10 08:19:00;;;;;;;13.83;5.53;;;16.40;99.90;;;;;;5093037;28;20070;-78
2022/06/10 08:24:10;;;;;;;17.25;5.30;;;16.50;99.90;;;;;;5092603;28;20134;-78
2022/06/10 08:26:36;;;;;;;16.57;4.97;;;16.50;99.90;;;;;;5074820;28;20132;-78
2022/06/10 08:29:03;;;;;;;15.77;5.70;;;16.60;99.90;;;;;;5092265;28;20048;-80
2022/06/10 08:31:29;;;;;;;18.10;4.73;;;16.60;99.90;;;;;;5074256;28;20506;-77
2022/06/10 08:33:57;;;;;;;14.63;5.00;;;16.60;99.90;;;;;;5092090;28;20086;-80
2022/06/10 08:36:23;;;;;;;17.50;5.90;;;16.70;99.90;;;;;;5091972;28;20048;-78
2022/06/10 08:38:49;;;;;;;18.83;5.53;;;16.80;99.90;;;;;;5092269;28;20400;-78
2022/06/10 08:41:19;;;;;;;12.53;5.37;;;16.90;99.90;;;;;;5074179;28;20040;-78
2022/06/10 08:43:54;;;;;;;16.00;5.50;;;17.00;99.90;;;;;;5093074;28;20129;-78
2022/06/10 08:46:58;;;;;;;15.43;5.88;;;17.20;99.90;;;;;;5092560;28;20060;-79
2022/06/10 08:49:39;;;;;;;17.13;5.90;;;17.30;99.90;;;;;;5092349;28;20048;-82
2022/06/10 08:52:10;;;;;;;13.07;5.57;;;17.40;99.90;;;;;;5092840;28;20047;-77
2022/06/10 08:55:04;;;;;;;15.40;5.83;;;17.50;99.90;;;;;;5075039;28;20052;-84
2022/06/10 08:57:40;;;;;;;16.77;5.53;;;17.50;99.90;;;;;;5092300;28;20151;-82
2022/06/10 09:00:27;;;;;;;13.73;5.67;;;17.50;99.90;;;;;;5092466;28;20044;-77
2022/06/10 09:03:00;;;;;;;16.60;5.77;;;17.50;99.90;;;;;;5092708;28;20047;-77
2022/06/10 09:05:30;;;;;;;12.57;5.00;;;17.50;99.90;;;;;;5074484;28;20113;-81
2022/06/10 09:08:00;;;;;;;14.27;5.07;;;17.60;99.90;;;;;;5057972;28;20051;-83
2022/06/10 09:10:54;;;;;;;16.63;5.33;;;17.70;99.90;;;;;;5074124;28;20040;-78
2022/06/10 09:13:34;;;;;;;11.57;4.93;;;17.90;99.90;;;;;;5092171;28;20087;-84
2022/06/10 09:16:38;;;;;;;17.60;5.87;;;18.00;99.90;;;;;;5092611;28;20078;-83
2022/06/10 09:19:31;;;;;;;16.37;6.13;;;18.10;99.90;;;;;;5092232;28;20087;-80
2022/06/10 09:22:21;;;;;;;15.13;6.10;;;18.20;99.90;;;;;;5092306;28;20044;-79
2022/06/10 09:25:13;;;;;;;14.67;5.40;;;18.30;99.90;;;;;;5092497;28;20052;-76
2022/06/10 09:27:44;;;;;;;16.30;7.10;;;18.30;99.90;;;;;;5075845;28;20044;-81
2022/06/10 09:30:13;;;;;;;15.30;6.40;;;18.30;99.90;;;;;;5074787;28;20040;-81
2022/06/10 09:32:53;;;;;;;17.83;6.43;;;18.30;99.90;;;;;;5093981;28;20083;-74
2022/06/10 09:35:24;;;;;;;16.87;6.33;;;;;;;;;;5095525;28;20487;-78
2022/06/10 09:38:19;;;;;;;15.93;5.83;;;18.50;99.90;;;;;;5095861;28;20110;-76
2022/06/10 09:41:19;;;;;;;20.00;7.25;;;18.50;99.90;;;;;;5095980;28;20052;-78
2022/06/10 09:43:47;;;;;;;16.77;6.17;;;18.40;99.90;;;;;;5095628;28;20048;-74
2022/06/10 09:46:36;;;;;;;19.07;7.20;;;18.40;99.90;;;;;;5095812;28;20052;-77
2022/06/10 09:49:21;;;;;;;19.50;5.87;;;;;;;;;;5087746;28;20142;-77
2022/06/10 09:52:11;;;;;;;13.95;5.43;;;;;;;;;;5095451;28;20047;-80
2022/06/10 09:54:44;;;;;;;13.37;5.57;;;;;;;;;;5077552;28;20674;-77
2022/06/10 09:57:29;;;;;;;17.07;5.73;;;;;;;;;;5095718;28;20098;-77
2022/06/10 10:00:11;;;;;;;13.30;4.90;;;;;;;;;;5077359;28;20051;-77
2022/06/10 10:03:05;;;;;;;15.53;5.23;;;18.80;99.90;;;;;;5094930;28;20166;-76
2022/06/10 10:05:44;;;;;;;17.57;5.50;;;18.60;99.90;;;;;;5095123;28;20044;-78
2022/06/10 10:08:10;;;;;;;16.23;5.70;;;;;;;;;;5095235;28;20059;-71
2022/06/10 10:10:44;;;;;;;13.43;5.43;;;18.60;99.90;;;;;;5094925;28;20052;-69
2022/06/10 10:13:29;;;;;;;16.40;6.57;;;18.60;99.90;;;;;;5094961;28;20056;-77
2022/06/10 10:16:04;;;;;;;13.57;5.50;;;18.60;99.90;;;;;;5095106;28;20047;-76
2022/06/10 10:18:44;;;;;;;16.77;5.47;;;18.60;99.90;;;;;;5076948;28;20044;-77
2022/06/10 10:21:19;;;;;;;11.40;5.73;;;18.50;99.90;;;;;;5094969;28;20047;-76
2022/06/10 10:23:54;;;;;;;16.70;5.15;;;18.50;99.90;;;;;;5076693;28;20445;-78
2022/06/10 10:26:22;;;;;;;14.37;4.90;;;18.50;99.90;;;;;;5094840;28;20040;-78
2022/06/10 10:28:52;;;;;;;14.20;4.83;;;18.50;99.90;;;;;;5094816;28;20044;-69
2022/06/10 10:31:24;;;;;;;12.43;4.60;;;18.60;99.90;;;;;;5094884;28;20387;-76
2022/06/10 10:33:50;;;;;;;14.53;4.70;;;18.60;99.90;;;;;;5094444;28;20056;-75
2022/06/10 10:36:22;;;;;;;11.07;5.20;;;18.50;99.90;;;;;;5094717;28;20499;-74
2022/06/10 10:38:49;;;;;;;14.97;6.10;;;18.50;99.90;;;;;;5094349;28;20064;-75
2022/06/10 10:41:32;;;;;;;14.47;5.40;;;18.50;99.90;;;;;;5094445;28;20036;-79
2022/06/10 10:44:05;;;;;;;15.37;5.90;;;18.50;99.90;;;;;;5093611;28;20055;-75
2022/06/10 10:46:36;;;;;;;10.90;4.50;;;18.60;99.90;;;;;;5094001;28;20048;-74
2022/06/10 10:49:04;;;;;;;12.17;5.20;;;18.70;99.90;;;;;;5094776;28;20434;-77
2022/06/10 10:51:38;;;;;;;10.07;4.77;;;18.90;99.90;;;;;;5094302;28;20044;-72
2022/06/10 10:54:18;;;;;;;12.90;4.30;;;19.10;99.90;;;;;;5094424;28;20135;-73
2022/06/10 10:56:47;;;;;;;11.17;4.40;;;19.20;99.90;;;;;;5093896;28;20055;-74
2022/06/10 10:59:28;;;;;;;11.47;4.87;;;19.30;99.90;;;;;;5093977;28;20040;-74
2022/06/10 11:01:55;;;;;;;11.00;5.30;;;19.40;99.90;;;;;;5094120;28;20081;-73
2022/06/10 11:04:33;;;;;;;11.37;5.23;;;19.50;99.90;;;;;;5094100;28;20051;-73
2022/06/10 11:07:03;;;;;;;12.17;5.40;;;19.60;99.90;;;;;;5094056;28;20051;-73
2022/06/10 11:09:29;;;;;;;12.93;5.80;;;19.70;99.90;;;;;;5093512;28;20601;-75
2022/06/10 11:11:57;;;;;;;12.00;6.40;;;19.80;99.90;;;;;;5076106;28;20040;-78
2022/06/10 11:14:32;;;;;;;13.23;5.63;;;19.90;99.90;;;;;;5093937;28;20036;-74
2022/06/10 11:17:11;;;;;;;14.37;5.93;;;19.90;99.90;;;;;;5094020;28;20044;-77
2022/06/10 11:19:42;;;;;;;12.67;4.70;;;19.90;99.90;;;;;;5093485;28;20052;-74
2022/06/10 11:22:20;;;;;;;11.27;5.10;;;19.90;99.90;;;;;;5093704;28;20093;-75
2022/06/10 11:25:16;;;;;;;14.57;5.37;;;19.80;99.90;;;;;;5093619;28;20561;-72
2022/06/10 11:27:48;;;;;;;14.50;4.90;;;19.70;99.90;;;;;;5092061;28;20152;-75
2022/06/10 11:30:14;;;;;;;12.03;5.03;;;19.60;99.90;;;;;;5093415;28;20048;-76
2022/06/10 11:32:43;;;;;;;14.87;4.77;;;19.50;99.90;;;;;;5093116;28;20048;-76
2022/06/10 11:35:37;;;;;;;12.47;4.67;;;19.50;99.90;;;;;;5093684;28;20051;-77
2022/06/10 11:38:05;;;;;;;16.57;4.93;;;19.50;99.90;;;;;;5075310;28;20044;-76
2022/06/10 11:40:51;;;;;;;11.37;3.97;;;19.50;99.90;;;;;;5093393;28;20051;-77
2022/06/10 11:43:18;;;;;;;12.10;4.33;;;19.60;99.90;;;;;;5075629;28;20055;-78
2022/06/10 11:45:48;;;;;;;9.10;4.77;;;19.60;99.90;;;;;;5093345;28;20062;-77
2022/06/10 11:48:28;;;;;;;10.63;4.53;;;19.70;99.90;;;;;;5075889;28;20044;-84
2022/06/10 11:51:14;;;;;;;15.83;5.13;;;19.90;99.90;;;;;;5093057;28;20101;-73
2022/06/10 11:54:01;;;;;;;13.03;4.40;;;20.00;99.90;;;;;;5093234;28;20438;-74
2022/06/10 11:59:54;;;;;;;10.83;4.30;;;20.40;99.90;;;;;;5081393;28;20047;-74
2022/06/10 12:03:02;;;;;;;15.07;4.20;;;20.50;99.90;;;;;;5093387;28;20047;-75
2022/06/10 12:06:05;;;;;;;11.73;4.33;;;20.60;99.90;;;;;;5087186;28;20412;-74
2022/06/10 12:08:37;;;;;;;10.30;4.47;;;;;;;;;;5090787;28;20108;-80
2022/06/10 12:11:33;;;;;;;11.73;3.63;;;20.80;99.90;;;;;;5075108;28;20051;-77
2022/06/10 12:14:08;;;;;;;7.77;2.90;;;;;;;;;;5092777;28;20399;-74
2022/06/10 12:16:34;;;;;;;;;;;;;;;;;;5093681;28;20055;-77
2022/06/10 12:19:06;;;;;;;9.73;3.33;;;;;;;;;;5092801;28;19924;-77
2022/06/10 12:21:32;;;;;;;11.70;3.23;;;;;;;;;;5058175;28;20047;-77
2022/06/10 12:23:58;;;;;;;10.50;3.50;;;21.30;99.90;;;;;;5092534;28;20048;-79
2022/06/10 12:26:30;;;;;;;8.67;3.17;;;21.30;99.90;;;;;;5092849;28;20092;-78
2022/06/10 12:29:21;;;;;;;8.17;3.40;;;21.30;99.90;;;;;;5092365;28;20044;-78
2022/06/10 12:32:29;;;;;;;9.57;2.60;;;21.20;99.90;;;;;;5092809;28;20073;-77
2022/06/10 12:35:11;;;;;;;8.67;2.30;;;21.20;99.90;;;;;;5086747;28;20094;-75
2022/06/10 12:37:46;;;;;;;7.43;2.37;;;21.10;99.90;;;;;;5093271;28;20093;-80
2022/06/10 12:40:18;;;;;;;7.77;2.30;;;21.10;99.90;;;;;;5083246;28;20066;-81
2022/06/10 12:42:55;;;;;;;8.87;2.20;;;21.10;99.90;;;;;;5072162;28;20044;-80
2022/06/10 12:45:27;;;;;;;7.17;2.40;;;21.20;99.90;;;;;;5072551;28;20124;-79
2022/06/10 12:47:56;;;;;;;8.03;2.33;;;21.30;99.90;;;;;;5072442;28;20048;-80
2022/06/10 12:50:23;;;;;;;8.17;2.27;;;21.40;99.90;;;;;;5072465;28;20052;-80
2022/06/10 12:53:33;;;;;;;10.20;2.43;;;21.40;99.90;;;;;;5072150;28;20128;-81
2022/06/10 12:56:14;;;;;;;9.37;2.63;;;21.40;99.90;;;;;;5013597;28;20092;-79
2022/06/10 12:58:44;;;;;;;8.00;2.37;;;21.30;99.90;;;;;;5068639;28;20052;-77
2022/06/10 13:01:27;;;;;;;7.37;2.40;;;21.20;99.90;;;;;;5072283;28;20484;-77
2022/06/10 13:04:13;;;;;;;8.27;2.10;;;21.10;99.90;;;;;;5072123;28;20503;-78
2022/06/10 13:06:42;;;;;;;7.00;2.00;;;21.10;99.90;;;;;;5073151;28;20145;-74
2022/06/10 13:09:11;;;;;;;7.30;2.33;;;21.20;99.90;;;;;;5075921;28;20080;-74
2022/06/10 13:11:51;;;;;;;6.43;2.03;;;21.20;99.90;;;;;;5076064;28;20056;-76
2022/06/10 13:14:25;;;;;;;8.93;2.33;;;21.40;99.90;;;;;;5076116;28;20055;-73
2022/06/10 13:17:00;;;;;;;7.57;2.37;;;21.40;99.90;;;;;;5075721;28;20060;-77
2022/06/10 13:19:41;;;;;;;;;;;21.30;99.90;;;;;;5076244;28;20503;-75
2022/06/10 13:22:19;;;;;;;6.67;2.30;;;21.30;99.90;;;;;;5057575;28;20303;-81